Time;durP1;ratioP1;P1;durP2;ratioP2;P2;SDS_P1;SDS_P2;PMS_P1;PMS_P2;Temp;Humidity;BMP_temperature;BMP_pressure;BME280_temperature;BME280_humidity;BME280_pressure;Samples;Min_cycle;Max_cycle;Signal;HPM_P1;HPM_P2
2022/01/23 00:01:10;;;;;;;20.90;13.07;;;5.30;96.00;;;;;;4976726;28;20177;-92
2022/01/23 00:03:43;;;;;;;24.63;12.23;;;5.30;96.00;;;;;;4976725;28;20235;-91
2022/01/23 00:06:08;;;;;;;24.57;12.23;;;5.30;96.00;;;;;;4976573;28;20224;-91
2022/01/23 00:08:35;;;;;;;24.63;12.10;;;5.30;96.00;;;;;;4976909;28;20565;-92
2022/01/23 00:11:01;;;;;;;20.10;12.53;;;5.30;96.00;;;;;;4979175;28;20188;-93
2022/01/23 00:13:36;;;;;;;27.77;11.93;;;5.30;96.00;;;;;;4979670;28;20176;-93
2022/01/23 00:18:46;;;;;;;27.13;11.27;;;5.40;96.00;;;;;;4994375;28;20168;-92
2022/01/23 00:21:11;;;;;;;18.93;10.70;;;5.40;96.00;;;;;;4976627;28;20181;-92
2022/01/23 00:31:33;;;;;;;19.07;9.80;;;5.40;96.00;;;;;;4994815;28;20219;-91
2022/01/23 00:33:59;;;;;;;23.23;9.27;;;5.40;96.00;;;;;;4977435;28;20228;-92
2022/01/23 00:36:27;;;;;;;23.93;9.60;;;5.40;96.00;;;;;;4976368;28;20718;-92
2022/01/23 00:38:53;;;;;;;18.80;8.13;;;5.40;96.10;;;;;;4993742;28;20304;-92
2022/01/23 00:41:19;;;;;;;20.00;8.13;;;5.40;96.10;;;;;;4976335;28;20180;-92
2022/01/23 00:43:45;;;;;;;15.27;7.13;;;5.40;96.10;;;;;;4976798;28;20184;-92
2022/01/23 00:51:17;;;;;;;25.17;8.87;;;5.40;96.10;;;;;;4993978;28;20158;-91
2022/01/23 00:53:43;;;;;;;19.00;8.47;;;5.40;96.10;;;;;;4976252;28;20184;-91
2022/01/23 00:56:09;;;;;;;19.53;7.80;;;5.50;96.10;;;;;;4978889;28;20212;-91
2022/01/23 00:58:35;;;;;;;16.10;8.00;;;5.40;96.10;;;;;;4979788;28;20653;-91
2022/01/23 01:01:00;;;;;;;16.23;7.60;;;5.50;96.10;;;;;;4997474;28;20181;-92
2022/01/23 01:03:26;;;;;;;17.83;7.93;;;5.40;96.00;;;;;;4979842;28;20559;-92
2022/01/23 01:05:52;;;;;;;18.43;7.83;;;5.40;96.10;;;;;;4979533;28;20727;-92
2022/01/23 01:08:18;;;;;;;17.60;8.03;;;5.50;96.10;;;;;;4980002;28;20224;-92
2022/01/23 01:11:29;;;;;;;13.13;7.87;;;5.50;96.10;;;;;;4979663;28;20213;-92
2022/01/23 01:13:50;;;;;;;16.33;7.90;;;5.50;96.10;;;;;;4996873;28;20240;-92
2022/01/23 01:35:17;;;;;;;15.63;9.17;;;5.50;96.20;;;;;;4996950;28;20157;-92
2022/01/23 01:37:42;;;;;;;16.30;8.50;;;5.50;96.20;;;;;;4979475;28;20164;-91
2022/01/23 01:40:08;;;;;;;15.90;9.07;;;5.50;96.20;;;;;;4979540;28;20670;-92
2022/01/23 01:42:34;;;;;;;19.10;9.97;;;5.50;96.20;;;;;;4979920;28;20572;-91
2022/01/23 01:45:00;;;;;;;16.07;9.97;;;5.50;96.20;;;;;;4979054;28;20195;-91
2022/01/23 01:47:25;;;;;;;18.17;11.77;;;5.50;96.20;;;;;;4978855;28;20229;-92
2022/01/23 01:49:51;;;;;;;23.80;10.70;;;5.50;96.20;;;;;;4978931;28;20640;-91
2022/01/23 01:52:17;;;;;;;19.33;11.13;;;5.60;96.20;;;;;;4979030;28;20180;-92
2022/01/23 01:54:42;;;;;;;25.53;12.37;;;5.60;96.30;;;;;;4979052;28;20216;-92
2022/01/23 01:57:10;;;;;;;20.83;12.17;;;5.60;96.30;;;;;;4978983;28;20269;-92
2022/01/23 02:08:48;;;;;;;29.23;13.33;;;5.50;96.30;;;;;;4995907;28;20228;-92
2022/01/23 02:10:47;;;;;;;27.63;13.47;;;5.60;96.30;;;;;;4982815;28;20181;-92
2022/01/23 02:13:15;;;;;;;23.63;13.40;;;5.60;96.30;;;;;;4978506;28;20184;-92
2022/01/23 02:18:24;;;;;;;22.63;11.87;;;5.60;96.30;;;;;;4995972;28;20208;-92
2022/01/23 02:51:11;;;;;;;26.73;13.23;;;5.80;96.40;;;;;;4995740;28;20180;-92
2022/01/23 02:54:07;;;;;;;21.70;13.57;;;5.80;96.30;;;;;;4977793;28;20173;-91
2022/01/23 02:56:34;;;;;;;24.80;12.87;;;5.80;96.40;;;;;;4994897;28;20252;-92
2022/01/23 02:59:11;;;;;;;22.40;12.10;;;5.90;96.40;;;;;;4977899;28;20212;-92
2022/01/23 03:01:47;;;;;;;25.70;12.53;;;5.90;96.40;;;;;;4977620;28;20639;-92
2022/01/23 03:04:12;;;;;;;22.00;12.63;;;5.90;96.40;;;;;;4977682;28;20691;-92
2022/01/23 03:12:56;;;;;;;23.67;11.37;;;5.90;96.40;;;;;;4995315;28;20546;-92
2022/01/23 03:15:06;;;;;;;26.57;12.97;;;6.00;96.50;;;;;;4994652;28;20172;-92
2022/01/23 03:28:59;;;;;;;24.17;12.83;;;6.00;96.50;;;;;;4995182;28;20223;-92
2022/01/23 03:31:27;;;;;;;30.27;12.67;;;6.00;96.50;;;;;;4994298;28;20174;-92
2022/01/23 03:33:53;;;;;;;31.73;12.90;;;6.00;96.50;;;;;;4977245;28;20181;-92
2022/01/23 03:36:19;;;;;;;25.10;12.73;;;6.00;96.50;;;;;;4977251;28;20237;-92
2022/01/23 03:38:45;;;;;;;19.33;10.57;;;6.00;96.50;;;;;;4976909;28;20182;-92
2022/01/23 03:41:12;;;;;;;22.67;11.97;;;6.10;96.50;;;;;;4977218;28;20185;-92
2022/01/23 03:43:39;;;;;;;15.90;10.30;;;6.10;96.50;;;;;;4976953;28;20271;-92
2022/01/23 03:51:16;;;;;;;18.23;7.70;;;6.20;96.50;;;;;;4994502;28;20628;-92
2022/01/23 03:53:42;;;;;;;15.67;7.87;;;6.10;96.50;;;;;;4976747;28;20186;-92
2022/01/23 03:56:08;;;;;;;16.17;8.60;;;6.20;96.50;;;;;;4977326;28;20707;-91
2022/01/23 03:58:34;;;;;;;16.27;8.17;;;6.20;96.50;;;;;;4976748;28;20189;-92
2022/01/23 04:01:00;;;;;;;18.10;8.33;;;6.20;96.50;;;;;;4976546;28;20646;-92
2022/01/23 04:03:27;;;;;;;21.07;8.23;;;6.10;96.50;;;;;;4976752;28;20182;-92
2022/01/23 04:05:52;;;;;;;15.97;8.33;;;6.20;96.50;;;;;;4976526;28;20213;-92
2022/01/23 04:08:20;;;;;;;20.50;7.97;;;6.20;96.60;;;;;;4976808;28;20204;-92
2022/01/23 04:10:46;;;;;;;18.60;8.17;;;6.20;96.60;;;;;;4976678;28;20635;-92
2022/01/23 04:13:19;;;;;;;17.87;8.90;;;6.10;96.50;;;;;;4976580;28;20276;-92
2022/01/23 04:31:45;;;;;;;17.43;8.73;;;6.20;96.60;;;;;;4994554;28;20248;-92
2022/01/23 04:32:46;;;;;;;25.70;8.30;;;6.20;96.50;;;;;;4997936;28;20203;-92
2022/01/23 04:46:14;;;;;;;23.47;8.33;;;6.20;96.50;;;;;;4998192;28;20257;-92
2022/01/23 04:59:31;;;;;;;28.47;8.70;;;6.20;96.50;;;;;;4980142;28;20185;-92
2022/01/23 04:59:54;;;;;;;32.13;8.70;;;6.20;96.50;;;;;;5037060;28;20219;-92
2022/01/23 05:03:03;;;;;;;21.93;8.50;;;6.20;96.50;;;;;;5018782;28;20222;-90
2022/01/23 05:05:07;;;;;;;26.50;8.93;;;6.20;96.50;;;;;;5035043;28;20179;-90
2022/01/23 05:07:33;;;;;;;29.37;8.40;;;6.20;96.50;;;;;;5018608;28;20217;-91
2022/01/23 05:09:59;;;;;;;25.23;8.93;;;6.20;96.50;;;;;;5018727;28;20176;-91
2022/01/23 05:12:29;;;;;;;31.73;10.03;;;6.20;96.50;;;;;;5018622;28;20181;-91
2022/01/23 05:14:55;;;;;;;25.30;10.10;;;6.20;96.50;;;;;;5018993;28;20176;-91
2022/01/23 05:17:21;;;;;;;27.23;11.53;;;6.20;96.50;;;;;;5018351;28;20196;-91
2022/01/23 05:19:46;;;;;;;36.13;14.00;;;6.20;96.50;;;;;;5036350;28;20179;-91
2022/01/23 05:24:40;;;;;;;32.50;14.57;;;6.20;96.50;;;;;;5036177;28;20262;-91
2022/01/23 05:27:08;;;;;;;40.27;15.77;;;6.30;96.50;;;;;;5036241;28;20274;-91
2022/01/23 05:29:34;;;;;;;32.47;13.47;;;6.20;96.50;;;;;;5018429;28;20177;-92
2022/01/23 05:32:01;;;;;;;27.33;13.50;;;6.20;96.50;;;;;;5018380;28;20199;-91
2022/01/23 05:34:27;;;;;;;45.03;14.67;;;6.30;96.50;;;;;;5018302;28;20173;-91
2022/01/23 05:36:54;;;;;;;31.57;12.53;;;6.20;96.50;;;;;;5018838;28;20211;-91
2022/01/23 05:39:22;;;;;;;45.80;13.57;;;6.20;96.50;;;;;;5018144;28;20190;-91
2022/01/23 05:41:54;;;;;;;38.97;12.70;;;6.20;96.50;;;;;;5017311;28;20548;-92
2022/01/23 05:44:20;;;;;;;37.30;12.50;;;6.20;96.50;;;;;;5018202;28;20196;-91
2022/01/23 05:46:46;;;;;;;41.60;13.60;;;6.20;96.50;;;;;;5017880;28;20216;-91
2022/01/23 05:49:12;;;;;;;37.10;12.83;;;6.20;96.50;;;;;;5019053;28;20169;-91
2022/01/23 05:51:37;;;;;;;31.87;13.70;;;6.20;96.50;;;;;;5035704;28;20172;-91
2022/01/23 05:54:03;;;;;;;39.90;12.53;;;6.20;96.50;;;;;;5018875;28;20291;-91
2022/01/23 05:56:29;;;;;;;33.37;12.93;;;6.20;96.50;;;;;;5017861;28;20224;-91
2022/01/23 05:58:55;;;;;;;36.27;11.57;;;6.20;96.50;;;;;;5017950;28;20552;-91
2022/01/23 06:01:21;;;;;;;29.30;10.27;;;6.20;96.50;;;;;;5017805;28;20172;-91
2022/01/23 06:03:46;;;;;;;33.40;11.90;;;6.20;96.50;;;;;;5018076;28;20184;-90
2022/01/23 06:06:12;;;;;;;40.53;10.30;;;6.20;96.40;;;;;;5017623;28;20215;-91
2022/01/23 06:08:38;;;;;;;37.17;11.17;;;6.20;96.50;;;;;;5017670;28;20176;-91
2022/01/23 06:11:03;;;;;;;37.33;10.33;;;6.20;96.40;;;;;;5017447;28;20195;-91
2022/01/23 06:13:31;;;;;;;43.63;10.60;;;6.20;96.40;;;;;;5017587;28;20266;-91
2022/01/23 06:15:56;;;;;;;36.23;9.83;;;6.20;96.40;;;;;;5017936;28;20199;-91
2022/01/23 06:18:22;;;;;;;30.73;9.83;;;6.20;96.40;;;;;;5035144;28;20175;-91
2022/01/23 06:20:47;;;;;;;43.33;9.90;;;6.20;96.40;;;;;;5017410;28;20186;-91
2022/01/23 06:23:13;;;;;;;22.60;8.73;;;6.20;96.40;;;;;;5017400;28;20180;-91
2022/01/23 06:25:44;;;;;;;30.40;9.73;;;6.20;96.40;;;;;;5034918;28;20207;-91
2022/01/23 06:28:10;;;;;;;30.20;10.27;;;6.20;96.40;;;;;;5017221;28;20210;-91
2022/01/23 06:30:37;;;;;;;30.20;10.33;;;6.20;96.40;;;;;;5017207;28;20177;-91
2022/01/23 06:33:04;;;;;;;33.13;10.73;;;6.20;96.40;;;;;;5034917;28;20187;-91
2022/01/23 06:35:30;;;;;;;41.40;12.60;;;6.20;96.40;;;;;;5017297;28;20173;-91
2022/01/23 06:37:55;;;;;;;38.27;11.87;;;6.20;96.40;;;;;;5017198;28;20207;-91
2022/01/23 06:40:21;;;;;;;38.57;11.77;;;6.10;96.40;;;;;;5016991;28;20172;-91
2022/01/23 06:42:47;;;;;;;39.83;13.97;;;6.20;96.40;;;;;;5034751;28;20647;-91
2022/01/23 06:45:12;;;;;;;40.33;12.97;;;6.10;96.40;;;;;;5016898;28;20537;-91
2022/01/23 06:47:39;;;;;;;35.83;11.83;;;6.20;96.40;;;;;;5016844;28;20203;-91
2022/01/23 06:50:05;;;;;;;32.07;12.83;;;6.20;96.40;;;;;;5034665;28;20255;-91
2022/01/23 06:52:30;;;;;;;23.53;10.67;;;6.10;96.40;;;;;;5034112;28;20177;-91
2022/01/23 06:54:56;;;;;;;32.10;12.87;;;6.20;96.50;;;;;;5034472;28;20275;-91
2022/01/23 06:57:22;;;;;;;40.40;13.80;;;6.20;96.50;;;;;;5016927;28;20224;-91
2022/01/23 06:59:47;;;;;;;42.13;13.77;;;6.20;96.40;;;;;;5016680;28;20188;-90
2022/01/23 07:02:13;;;;;;;28.27;12.33;;;6.20;96.40;;;;;;5034389;28;20234;-91
2022/01/23 07:04:38;;;;;;;38.50;13.20;;;6.20;96.50;;;;;;5016541;28;20179;-91
2022/01/23 07:07:04;;;;;;;37.93;13.97;;;6.20;96.50;;;;;;5016522;28;20209;-90
2022/01/23 07:09:30;;;;;;;42.20;12.87;;;6.20;96.50;;;;;;5016718;28;20181;-91
2022/01/23 07:11:55;;;;;;;30.37;12.00;;;6.20;96.50;;;;;;5034235;28;20547;-91
2022/01/23 07:14:21;;;;;;;25.60;11.43;;;6.20;96.50;;;;;;5016479;28;20544;-91
2022/01/23 07:16:47;;;;;;;38.37;11.50;;;6.20;96.50;;;;;;5016339;28;20210;-90
2022/01/23 07:19:13;;;;;;;30.23;12.00;;;6.20;96.40;;;;;;5016419;28;20184;-90
2022/01/23 07:21:39;;;;;;;37.80;11.87;;;6.20;96.50;;;;;;5033941;28;20172;-90
2022/01/23 07:24:05;;;;;;;43.60;11.90;;;6.20;96.50;;;;;;5016250;28;20181;-90
2022/01/23 07:26:31;;;;;;;32.80;12.23;;;6.20;96.40;;;;;;5033745;28;20355;-90
2022/01/23 07:29:00;;;;;;;33.03;12.00;;;6.20;96.50;;;;;;5016189;28;20206;-90
2022/01/23 07:34:09;;;;;;;34.60;11.63;;;6.20;96.40;;;;;;5034373;28;20166;-90
2022/01/23 07:36:35;;;;;;;28.57;10.27;;;6.20;96.50;;;;;;5033774;28;20198;-91
2022/01/23 07:39:01;;;;;;;31.07;11.60;;;6.30;96.50;;;;;;5016261;28;20180;-91
2022/01/23 07:41:27;;;;;;;22.60;10.40;;;6.30;96.50;;;;;;5033653;28;20180;-91
2022/01/23 07:43:52;;;;;;;28.63;10.30;;;6.30;96.50;;;;;;5033564;28;20179;-91
2022/01/23 07:46:19;;;;;;;24.50;10.37;;;6.30;96.50;;;;;;5015833;28;20258;-90
2022/01/23 07:48:45;;;;;;;37.57;9.07;;;6.30;96.40;;;;;;5033879;28;20168;-91
2022/01/23 07:51:11;;;;;;;29.73;8.93;;;6.30;96.50;;;;;;5015892;28;20171;-91
2022/01/23 07:53:36;;;;;;;34.87;9.77;;;6.30;96.40;;;;;;5033515;28;20207;-91
2022/01/23 07:56:03;;;;;;;27.80;8.43;;;6.30;96.40;;;;;;5015516;28;20215;-91
2022/01/23 07:58:29;;;;;;;29.03;8.57;;;6.30;96.40;;;;;;5033438;28;20570;-91
2022/01/23 08:00:55;;;;;;;28.27;9.60;;;6.30;96.40;;;;;;5015733;28;20207;-90
2022/01/23 08:03:20;;;;;;;29.70;9.48;;;6.30;96.40;;;;;;5033086;28;20488;-90
2022/01/23 08:05:46;;;;;;;25.47;9.27;;;6.40;96.40;;;;;;5014994;28;20354;-90
2022/01/23 08:08:12;;;;;;;27.20;9.73;;;6.40;96.40;;;;;;5033262;28;20254;-91
2022/01/23 08:10:38;;;;;;;27.63;8.77;;;6.40;96.40;;;;;;5015678;28;20638;-90
2022/01/23 08:13:05;;;;;;;36.23;9.83;;;6.40;96.40;;;;;;5015835;28;20200;-90
2022/01/23 08:15:31;;;;;;;31.23;10.17;;;6.40;96.40;;;;;;5033531;28;20170;-90
2022/01/23 08:18:05;;;;;;;32.40;9.60;;;6.40;96.30;;;;;;5015665;28;20238;-91
2022/01/23 08:20:33;;;;;;;32.03;9.33;;;6.40;96.40;;;;;;5015511;28;20260;-90
2022/01/23 08:23:03;;;;;;;27.80;8.90;;;6.40;96.30;;;;;;5015526;28;20169;-90
2022/01/23 08:25:29;;;;;;;27.90;8.90;;;6.40;96.30;;;;;;5015456;28;20657;-91
2022/01/23 08:27:55;;;;;;;29.53;10.27;;;6.40;96.30;;;;;;5015450;28;20193;-90
2022/01/23 08:30:21;;;;;;;30.43;8.40;;;6.40;96.30;;;;;;5015298;28;20226;-91
2022/01/23 08:32:47;;;;;;;25.83;8.67;;;6.50;96.30;;;;;;5015211;28;20192;-90
2022/01/23 08:35:13;;;;;;;25.20;7.43;;;6.40;96.30;;;;;;5015422;28;20641;-90
2022/01/23 08:37:38;;;;;;;29.80;7.53;;;6.50;96.30;;;;;;5015234;28;20668;-90
2022/01/23 08:40:16;;;;;;;28.73;8.37;;;6.50;96.30;;;;;;5015588;28;20526;-90
2022/01/23 08:42:41;;;;;;;23.57;7.50;;;6.50;96.20;;;;;;5015335;28;20259;-90
2022/01/23 08:45:07;;;;;;;25.97;6.90;;;6.50;96.20;;;;;;5033001;28;20215;-89
2022/01/23 08:47:33;;;;;;;21.27;6.87;;;6.50;96.20;;;;;;5032755;28;20200;-90
2022/01/23 08:49:59;;;;;;;22.83;6.70;;;6.50;96.20;;;;;;5032927;28;20169;-90
2022/01/23 08:52:24;;;;;;;37.00;7.10;;;6.60;96.20;;;;;;5015308;28;20222;-91
2022/01/23 08:54:56;;;;;;;29.20;6.10;;;6.60;96.20;;;;;;5032830;28;20176;-91
2022/01/23 08:57:22;;;;;;;18.30;5.90;;;6.50;96.10;;;;;;5032731;28;20581;-90
2022/01/23 08:59:48;;;;;;;34.43;6.50;;;6.50;96.10;;;;;;5015142;28;20185;-91
2022/01/23 09:02:15;;;;;;;23.53;6.03;;;6.60;96.10;;;;;;5015067;28;20649;-90
2022/01/23 09:04:41;;;;;;;21.13;5.43;;;6.60;96.10;;;;;;5015202;28;20188;-91
2022/01/23 09:07:07;;;;;;;17.13;4.87;;;6.70;96.10;;;;;;5015040;28;20209;-90
2022/01/23 09:09:37;;;;;;;20.23;5.30;;;6.60;96.00;;;;;;5015066;28;20172;-91
2022/01/23 09:12:08;;;;;;;18.70;4.83;;;6.60;96.00;;;;;;5015083;28;20169;-90
2022/01/23 09:14:34;;;;;;;18.97;5.03;;;6.60;96.00;;;;;;5015116;28;20186;-90
2022/01/23 09:17:00;;;;;;;20.13;4.47;;;6.60;96.00;;;;;;5017749;28;20671;-90
2022/01/23 09:19:27;;;;;;;19.37;4.87;;;6.60;95.90;;;;;;5036434;28;20176;-90
2022/01/23 09:21:54;;;;;;;16.30;4.40;;;6.60;95.90;;;;;;5018573;28;20652;-90
2022/01/23 09:24:22;;;;;;;24.17;4.40;;;6.70;95.80;;;;;;5036282;28;20196;-91
2022/01/23 09:26:53;;;;;;;18.40;4.80;;;6.70;95.70;;;;;;5018401;28;20212;-90
2022/01/23 09:29:41;;;;;;;16.00;4.23;;;6.70;95.80;;;;;;5018586;28;20161;-91
2022/01/23 09:32:12;;;;;;;17.47;4.37;;;6.70;95.70;;;;;;5036361;28;20156;-91
2022/01/23 09:34:41;;;;;;;18.60;4.43;;;6.70;95.70;;;;;;5018244;28;20177;-91
2022/01/23 09:37:09;;;;;;;23.50;4.70;;;6.70;95.60;;;;;;5018237;28;20207;-90
2022/01/23 09:39:35;;;;;;;11.33;3.40;;;6.80;95.60;;;;;;5018233;28;20263;-90
2022/01/23 09:42:05;;;;;;;22.00;5.07;;;6.80;95.50;;;;;;5035910;28;20173;-90
2022/01/23 09:44:38;;;;;;;16.00;4.00;;;6.80;95.40;;;;;;5035858;28;20177;-90
2022/01/23 09:47:04;;;;;;;18.00;4.10;;;6.80;95.40;;;;;;5018512;28;20216;-91
2022/01/23 09:49:30;;;;;;;18.97;3.77;;;6.80;95.40;;;;;;5035960;28;20165;-90
2022/01/23 09:52:00;;;;;;;20.03;4.70;;;6.90;95.40;;;;;;5018112;28;20256;-90
2022/01/23 09:54:29;;;;;;;21.33;5.73;;;6.90;95.40;;;;;;5018031;28;20660;-90
2022/01/23 09:57:02;;;;;;;18.60;4.30;;;6.80;95.20;;;;;;5035587;28;20215;-90
2022/01/23 09:59:29;;;;;;;15.17;3.63;;;6.90;95.20;;;;;;5017931;28;20180;-91
2022/01/23 10:01:56;;;;;;;10.87;4.50;;;6.90;95.20;;;;;;5017838;28;20177;-90
2022/01/23 10:04:24;;;;;;;11.67;3.77;;;6.90;95.20;;;;;;5017774;28;20227;-90
2022/01/23 10:06:50;;;;;;;14.97;3.97;;;6.90;95.10;;;;;;5017559;28;20212;-89
2022/01/23 10:09:16;;;;;;;13.27;3.53;;;7.00;95.10;;;;;;5035404;28;20702;-90
2022/01/23 10:11:43;;;;;;;19.60;3.40;;;7.00;95.10;;;;;;5017767;28;20223;-90
2022/01/23 10:14:09;;;;;;;12.90;3.60;;;7.00;95.00;;;;;;5017683;28;20648;-90
2022/01/23 10:16:35;;;;;;;12.27;3.60;;;6.90;95.00;;;;;;5036117;28;20199;-90
2022/01/23 10:19:03;;;;;;;15.37;3.77;;;7.00;94.90;;;;;;5035843;28;20197;-91
2022/01/23 10:21:33;;;;;;;17.67;5.30;;;7.00;94.90;;;;;;5017773;28;20185;-91
2022/01/23 10:23:59;;;;;;;19.80;4.03;;;7.00;94.80;;;;;;5017566;28;20183;-90
2022/01/23 10:26:51;;;;;;;15.10;4.10;;;7.00;94.80;;;;;;5017209;28;20250;-90
2022/01/23 10:29:25;;;;;;;15.47;3.50;;;7.00;94.70;;;;;;5016814;28;20173;-90
2022/01/23 10:32:04;;;;;;;7.77;3.23;;;7.10;94.50;;;;;;5017207;28;20517;-90
2022/01/23 10:34:43;;;;;;;7.03;3.27;;;7.10;94.60;;;;;;5034869;28;20169;-90
2022/01/23 10:37:10;;;;;;;10.83;3.23;;;7.10;94.50;;;;;;5034798;28;20566;-90
2022/01/23 10:39:44;;;;;;;14.77;3.97;;;7.10;94.50;;;;;;5035151;28;20184;-90
2022/01/23 10:48:26;;;;;;;15.70;3.80;;;7.20;94.30;;;;;;5034756;28;20168;-89
2022/01/23 10:51:11;;;;;;;10.27;3.50;;;7.20;94.20;;;;;;5034598;28;20153;-90
2022/01/23 10:53:55;;;;;;;11.07;3.10;;;7.20;94.10;;;;;;5016970;28;20249;-90
2022/01/23 10:56:21;;;;;;;14.63;3.50;;;7.20;94.10;;;;;;5034584;28;20227;-89
2022/01/23 10:59:00;;;;;;;21.47;3.73;;;7.30;94.10;;;;;;5034542;28;20169;-90
2022/01/23 11:01:27;;;;;;;14.67;3.40;;;7.30;94.00;;;;;;5034599;28;20535;-90
2022/01/23 11:04:13;;;;;;;14.60;3.23;;;7.30;93.90;;;;;;5034291;28;20257;-91
2022/01/23 11:07:00;;;;;;;8.70;2.80;;;7.30;93.90;;;;;;5016531;28;20633;-91
2022/01/23 11:09:27;;;;;;;12.77;2.87;;;7.30;93.60;;;;;;5016628;28;20184;-90
2022/01/23 11:12:01;;;;;;;13.80;2.80;;;7.40;93.60;;;;;;5034213;28;20169;-91
2022/01/23 11:17:25;;;;;;;10.10;2.67;;;7.40;93.50;;;;;;5034431;28;20242;-91
2022/01/23 11:19:56;;;;;;;10.50;2.90;;;7.50;93.50;;;;;;5034090;28;20537;-91
2022/01/23 11:22:26;;;;;;;14.93;3.27;;;7.50;93.40;;;;;;5034364;28;20211;-91
2022/01/23 11:24:56;;;;;;;8.00;2.60;;;7.60;93.40;;;;;;5016343;28;20177;-91
2022/01/23 11:27:22;;;;;;;11.00;3.03;;;7.50;92.90;;;;;;5033901;28;20342;-91
2022/01/23 11:30:11;;;;;;;12.03;3.67;;;7.50;92.90;;;;;;5016191;28;20270;-91
2022/01/23 11:32:40;;;;;;;8.87;3.10;;;7.60;92.80;;;;;;5016423;28;20169;-91
2022/01/23 11:35:13;;;;;;;10.53;2.63;;;7.60;92.80;;;;;;5016407;28;20184;-91
2022/01/23 11:37:48;;;;;;;6.67;2.07;;;7.60;92.60;;;;;;5033828;28;20264;-90
2022/01/23 11:54:00;;;;;;;10.20;3.27;;;7.70;91.70;;;;;;5033610;28;20208;-91
2022/01/23 11:56:46;;;;;;;8.00;2.50;;;7.70;91.90;;;;;;5033394;28;20218;-90
2022/01/23 11:59:31;;;;;;;6.43;2.87;;;7.70;92.00;;;;;;5033758;28;20160;-90
2022/01/23 12:02:10;;;;;;;6.20;2.40;;;7.60;91.60;;;;;;5015766;28;20165;-90
2022/01/23 12:04:36;;;;;;;10.27;2.63;;;7.70;91.90;;;;;;5033402;28;20183;-91
2022/01/23 12:07:22;;;;;;;13.60;2.73;;;7.70;92.00;;;;;;5015519;28;20619;-91
2022/01/23 12:10:30;;;;;;;7.03;2.70;;;7.70;91.90;;;;;;5033454;28;20186;-90
2022/01/23 12:13:56;;;;;;;6.43;2.50;;;7.80;92.00;;;;;;4953456;28;20175;-91
2022/01/23 12:16:27;;;;;;;11.03;2.63;;;7.80;91.90;;;;;;5032099;28;20239;-91
2022/01/23 12:19:16;;;;;;;6.67;2.10;;;7.90;91.70;;;;;;5033234;28;20150;-91
2022/01/23 12:21:42;;;;;;;6.87;2.67;;;7.90;91.60;;;;;;5015527;28;20207;-91
2022/01/23 12:24:09;;;;;;;13.80;3.10;;;7.90;91.30;;;;;;5033192;28;20169;-91
2022/01/23 12:26:35;;;;;;;6.00;2.73;;;8.00;91.40;;;;;;5033016;28;20242;-91
2022/01/23 12:29:11;;;;;;;8.93;2.83;;;8.00;91.40;;;;;;5015538;28;20208;-90
2022/01/23 12:31:38;;;;;;;11.73;2.37;;;7.90;91.00;;;;;;5033151;28;20176;-90
2022/01/23 12:34:04;;;;;;;7.83;2.23;;;7.90;90.70;;;;;;5033146;28;20164;-91
2022/01/23 12:36:35;;;;;;;4.93;2.17;;;7.80;90.50;;;;;;5033033;28;20207;-91
2022/01/23 12:39:06;;;;;;;6.40;2.40;;;7.80;90.70;;;;;;5033013;28;20188;-91
2022/01/23 12:41:40;;;;;;;9.30;2.10;;;7.80;90.60;;;;;;5032958;28;20539;-90
2022/01/23 12:44:07;;;;;;;5.33;2.37;;;7.90;90.70;;;;;;5015592;28;20179;-90
2022/01/23 12:46:50;;;;;;;11.53;2.53;;;7.90;90.50;;;;;;5015350;28;20554;-90
2022/01/23 12:49:29;;;;;;;11.23;2.50;;;8.00;90.20;;;;;;5033049;28;20159;-90
2022/01/23 12:52:09;;;;;;;9.97;2.57;;;8.10;90.20;;;;;;5019085;28;20534;-90
2022/01/23 12:54:47;;;;;;;8.73;2.20;;;8.20;90.20;;;;;;5037040;28;20234;-90
2022/01/23 12:57:16;;;;;;;5.93;2.10;;;8.20;89.90;;;;;;5036904;28;20208;-90
2022/01/23 12:59:43;;;;;;;6.67;2.00;;;8.10;89.60;;;;;;5036638;28;20710;-90
2022/01/23 13:02:17;;;;;;;5.37;2.20;;;8.00;89.80;;;;;;5018937;28;20652;-90
2022/01/23 13:04:46;;;;;;;19.43;3.23;;;7.90;89.70;;;;;;5019103;28;20167;-90
2022/01/23 13:10:27;;;;;;;7.40;2.20;;;7.70;89.70;;;;;;5036589;28;20160;-90
2022/01/23 13:13:05;;;;;;;11.27;2.53;;;7.60;89.80;;;;;;5018786;28;20271;-90
2022/01/23 13:34:41;;;;;;;10.00;2.23;;;7.60;90.00;;;;;;5036422;28;20177;-91
2022/01/23 13:37:14;;;;;;;8.00;2.40;;;7.60;90.00;;;;;;5018318;28;20204;-92
2022/01/23 13:40:04;;;;;;;6.87;2.50;;;7.50;89.70;;;;;;5035952;28;20646;-91
2022/01/23 13:49:22;;;;;;;4.47;2.20;;;7.50;90.10;;;;;;5036203;28;20179;-91
2022/01/23 13:59:57;;;;;;;10.97;2.47;;;7.40;90.10;;;;;;5036373;28;20218;-91
2022/01/23 14:02:24;;;;;;;8.67;2.27;;;7.40;90.40;;;;;;5034409;28;20153;-91
2022/01/23 14:05:05;;;;;;;7.50;2.40;;;7.30;90.10;;;;;;5035503;28;20169;-91
2022/01/23 14:07:32;;;;;;;8.10;2.47;;;7.30;90.20;;;;;;5017584;28;20212;-91
2022/01/23 14:10:14;;;;;;;12.90;3.13;;;7.30;90.40;;;;;;5017689;28;20173;-92
2022/01/23 14:12:40;;;;;;;8.47;2.80;;;7.30;90.50;;;;;;5017736;28;20193;-91
2022/01/23 14:15:13;;;;;;;5.40;2.20;;;7.30;90.60;;;;;;5018438;28;20204;-92
2022/01/23 14:17:39;;;;;;;7.53;2.47;;;7.30;90.30;;;;;;5035185;28;20200;-92
2022/01/23 14:20:16;;;;;;;6.90;2.20;;;7.30;90.20;;;;;;5017589;28;20183;-92
2022/01/23 14:22:45;;;;;;;5.17;2.40;;;7.20;90.20;;;;;;5035220;28;20219;-93
2022/01/23 14:25:27;;;;;;;7.20;2.10;;;7.20;90.30;;;;;;5017422;28;20176;-92
2022/01/23 14:28:10;;;;;;;8.83;3.03;;;7.20;90.40;;;;;;5017554;28;20227;-92
2022/01/23 14:30:43;;;;;;;5.80;2.13;;;7.10;90.30;;;;;;5017329;28;20169;-92
2022/01/23 14:33:34;;;;;;;9.10;2.50;;;7.00;90.40;;;;;;5035041;28;20157;-91
2022/01/23 14:36:19;;;;;;;6.13;2.43;;;7.10;90.50;;;;;;5017163;28;20227;-91
2022/01/23 14:39:06;;;;;;;8.70;2.33;;;7.00;90.40;;;;;;5017471;28;20215;-90
2022/01/23 14:41:38;;;;;;;7.50;2.97;;;7.00;90.50;;;;;;5034825;28;20246;-91
2022/01/23 14:44:21;;;;;;;9.23;3.50;;;7.00;90.50;;;;;;5017068;28;20177;-91
2022/01/23 14:46:49;;;;;;;12.33;2.67;;;7.00;90.50;;;;;;5034599;28;20226;-91
2022/01/23 14:49:22;;;;;;;8.30;3.00;;;6.90;90.40;;;;;;5016963;28;20177;-90
2022/01/23 14:51:48;;;;;;;9.60;2.67;;;6.90;90.40;;;;;;5016939;28;20165;-89
2022/01/23 14:54:17;;;;;;;6.70;2.60;;;6.90;90.40;;;;;;5034591;28;20169;-90
2022/01/23 14:56:43;;;;;;;6.93;2.70;;;6.90;90.50;;;;;;5034576;28;20230;-90
2022/01/23 14:59:14;;;;;;;6.37;2.63;;;6.90;90.50;;;;;;5017192;28;20185;-90
2022/01/23 15:01:42;;;;;;;5.23;2.33;;;6.80;90.50;;;;;;5034358;28;20165;-90
2022/01/23 15:04:10;;;;;;;4.33;2.23;;;6.90;90.50;;;;;;5034286;28;20172;-89
2022/01/23 15:06:40;;;;;;;5.53;2.20;;;6.80;90.40;;;;;;5016476;28;20246;-90
2022/01/23 15:09:11;;;;;;;5.43;2.40;;;6.80;90.40;;;;;;5034485;28;20153;-90
2022/01/23 15:11:38;;;;;;;7.93;2.70;;;6.70;90.40;;;;;;5016649;28;20723;-90
2022/01/23 15:14:05;;;;;;;5.23;2.40;;;6.80;90.50;;;;;;5033939;28;20169;-90
2022/01/23 15:16:31;;;;;;;6.00;2.60;;;6.70;90.60;;;;;;5016323;28;20196;-89
2022/01/23 15:18:58;;;;;;;9.30;2.60;;;6.70;90.60;;;;;;5016420;28;20180;-89
2022/01/23 15:21:24;;;;;;;5.47;2.60;;;6.70;90.60;;;;;;5033959;28;20172;-90
2022/01/23 15:23:55;;;;;;;10.00;2.50;;;6.70;90.50;;;;;;5034158;28;20176;-90
2022/01/23 15:26:22;;;;;;;5.77;2.53;;;6.70;90.50;;;;;;5033862;28;20563;-89
2022/01/23 15:28:48;;;;;;;9.47;2.87;;;6.70;90.50;;;;;;5033979;28;20641;-91
2022/01/23 15:31:14;;;;;;;6.33;2.73;;;6.60;90.40;;;;;;5033911;28;20295;-90
2022/01/23 15:33:40;;;;;;;8.73;2.80;;;6.60;90.50;;;;;;5016137;28;20267;-91
2022/01/23 15:36:06;;;;;;;8.30;2.40;;;6.60;90.60;;;;;;5034018;28;20200;-90
2022/01/23 15:38:32;;;;;;;2.70;2.40;;;6.60;90.50;;;;;;5033652;28;20177;-90
2022/01/23 15:40:58;;;;;;;5.60;2.37;;;6.60;90.60;;;;;;5016057;28;20180;-90
2022/01/23 15:43:24;;;;;;;6.83;2.77;;;6.50;90.50;;;;;;5015934;28;20288;-90
2022/01/23 15:45:52;;;;;;;4.67;2.50;;;6.50;90.60;;;;;;5033413;28;20176;-90
2022/01/23 15:48:18;;;;;;;7.67;2.60;;;6.40;90.40;;;;;;5015857;28;20293;-90
2022/01/23 15:50:44;;;;;;;6.90;2.30;;;6.40;90.30;;;;;;5033510;28;20219;-89
2022/01/23 15:53:09;;;;;;;4.60;2.53;;;6.40;90.40;;;;;;5015925;28;20172;-91
2022/01/23 15:55:35;;;;;;;7.30;2.50;;;6.40;90.40;;;;;;5015809;28;20181;-91
2022/01/23 15:58:01;;;;;;;9.63;2.87;;;6.40;90.50;;;;;;5033470;28;20665;-91
2022/01/23 16:00:27;;;;;;;2.93;2.40;;;6.40;90.50;;;;;;5015744;28;20177;-89
2022/01/23 16:02:52;;;;;;;9.30;2.90;;;6.40;90.60;;;;;;5033495;28;20173;-89
2022/01/23 16:05:19;;;;;;;4.80;2.77;;;6.30;90.60;;;;;;5015863;28;20678;-89
2022/01/23 16:07:45;;;;;;;12.10;2.87;;;6.30;90.70;;;;;;5033203;28;20197;-89
2022/01/23 16:10:11;;;;;;;4.03;2.60;;;6.40;90.70;;;;;;5033650;28;20160;-90
2022/01/23 16:12:41;;;;;;;4.27;3.50;;;6.30;90.70;;;;;;5033336;28;20219;-90
2022/01/23 16:15:11;;;;;;;7.93;2.67;;;6.30;90.70;;;;;;5015940;28;20161;-89